createdAt,value
2018-09-05T00:01:49.672Z,99.90
2018-09-05T00:04:18.498Z,99.90
2018-09-05T00:06:46.955Z,99.90
2018-09-05T00:09:15.442Z,99.90
2018-09-05T00:11:44.303Z,99.90
2018-09-05T00:14:12.747Z,99.90
2018-09-05T00:16:41.202Z,99.90
2018-09-05T00:19:09.675Z,99.90
2018-09-05T00:21:38.145Z,99.90
2018-09-05T00:24:06.642Z,99.90
2018-09-05T00:26:35.167Z,99.90
2018-09-05T00:29:03.604Z,99.90
2018-09-05T00:31:32.111Z,99.90
2018-09-05T00:34:00.598Z,99.90
2018-09-05T00:36:29.071Z,99.90
2018-09-05T00:38:58.137Z,99.90
2018-09-05T00:41:26.615Z,99.90
2018-09-05T00:43:55.023Z,99.90
2018-09-05T00:46:23.842Z,99.90
2018-09-05T00:48:52.552Z,99.90
2018-09-05T00:51:21.021Z,99.90
2018-09-05T00:53:49.460Z,99.90
2018-09-05T00:56:18.228Z,99.90
2018-09-05T00:58:46.931Z,99.90
2018-09-05T01:01:15.414Z,99.90
2018-09-05T01:03:44.182Z,99.90
2018-09-05T01:06:12.873Z,99.90
2018-09-05T01:08:41.326Z,99.90
2018-09-05T01:11:10.068Z,99.90
2018-09-05T01:13:38.623Z,99.90
2018-09-05T01:16:07.407Z,99.90
2018-09-05T01:18:35.835Z,99.90
2018-09-05T01:21:04.364Z,99.90
2018-09-05T01:23:33.157Z,99.90
2018-09-05T01:26:01.634Z,99.90
2018-09-05T01:28:30.075Z,99.90
2018-09-05T01:30:58.563Z,99.90
2018-09-05T01:33:27.046Z,99.90
2018-09-05T01:36:00.846Z,99.90
2018-09-05T01:38:30.071Z,99.90
2018-09-05T01:40:58.492Z,99.90
2018-09-05T01:43:26.958Z,99.90
2018-09-05T01:45:55.472Z,99.90
2018-09-05T01:48:24.291Z,99.90
2018-09-05T01:50:52.864Z,99.90
2018-09-05T01:53:21.358Z,99.90
2018-09-05T01:55:49.856Z,99.90
2018-09-05T01:58:18.419Z,99.90
2018-09-05T02:00:47.039Z,99.90
2018-09-05T02:03:15.572Z,99.90
2018-09-05T02:05:44.050Z,99.90
2018-09-05T02:08:12.567Z,99.90
2018-09-05T02:10:41.062Z,99.90
2018-09-05T02:13:09.598Z,99.90
2018-09-05T02:15:38.104Z,99.90
2018-09-05T02:18:06.633Z,99.90
2018-09-05T02:20:35.119Z,99.90
2018-09-05T02:23:03.644Z,99.90
2018-09-05T02:25:32.152Z,99.90
2018-09-05T02:28:00.967Z,99.90
2018-09-05T02:30:29.460Z,99.90
2018-09-05T02:32:58.550Z,99.90
2018-09-05T02:35:27.050Z,99.90
2018-09-05T02:37:55.606Z,99.90
2018-09-05T02:40:24.219Z,99.90
2018-09-05T02:42:52.710Z,99.90
2018-09-05T02:45:21.208Z,99.90
2018-09-05T02:47:49.733Z,99.90
2018-09-05T02:50:18.250Z,99.90
2018-09-05T02:52:46.747Z,99.90
2018-09-05T02:55:20.575Z,99.90
2018-09-05T02:57:49.079Z,99.90
2018-09-05T03:00:17.589Z,99.90
2018-09-05T03:02:46.102Z,99.90
2018-09-05T03:05:14.616Z,99.90
2018-09-05T03:07:43.184Z,99.90
2018-09-05T03:10:11.678Z,99.90
2018-09-05T03:12:40.224Z,99.90
2018-09-05T03:15:08.740Z,99.90
2018-09-05T03:17:37.279Z,99.90
2018-09-05T03:20:06.431Z,99.90
2018-09-05T03:22:35.275Z,99.90
2018-09-05T03:25:03.786Z,99.90
2018-09-05T03:27:32.332Z,99.90
2018-09-05T03:30:00.803Z,99.90
2018-09-05T03:32:29.423Z,99.90
2018-09-05T03:34:57.828Z,99.90
2018-09-05T03:37:26.451Z,99.90
2018-09-05T03:39:55.238Z,99.90
2018-09-05T03:42:23.817Z,99.90
2018-09-05T03:44:52.313Z,99.90
2018-09-05T03:47:20.833Z,99.90
2018-09-05T03:49:49.424Z,99.90
2018-09-05T03:52:17.899Z,99.90
2018-09-05T03:54:46.449Z,99.90
2018-09-05T03:57:14.926Z,99.90
2018-09-05T03:59:43.442Z,99.90
2018-09-05T04:02:11.923Z,99.90
2018-09-05T04:04:40.448Z,99.90
2018-09-05T04:07:08.972Z,99.90
2018-09-05T04:09:37.552Z,99.90
2018-09-05T04:12:06.146Z,99.90
2018-09-05T04:14:34.637Z,99.90
2018-09-05T04:17:03.126Z,99.90
2018-09-05T04:19:31.642Z,99.90
2018-09-05T04:22:00.399Z,99.90
2018-09-05T04:24:28.923Z,99.90
2018-09-05T04:26:57.398Z,99.90
2018-09-05T04:29:25.993Z,99.90
2018-09-05T04:31:55.126Z,99.90
2018-09-05T04:34:23.639Z,99.90
2018-09-05T04:36:52.119Z,99.90
2018-09-05T04:39:20.626Z,99.90
2018-09-05T04:41:49.172Z,99.90
2018-09-05T04:44:17.687Z,99.90
2018-09-05T04:46:46.175Z,99.90
2018-09-05T04:49:14.722Z,99.90
2018-09-05T04:51:43.226Z,99.90
2018-09-05T04:54:11.729Z,99.90
2018-09-05T04:56:40.224Z,99.90
2018-09-05T04:59:08.732Z,99.90
2018-09-05T05:01:37.542Z,99.90
2018-09-05T05:04:06.071Z,99.90
2018-09-05T05:06:34.575Z,99.90
2018-09-05T05:09:03.503Z,99.90
2018-09-05T05:11:32.319Z,99.90
2018-09-05T05:14:00.979Z,99.90
2018-09-05T05:16:29.506Z,99.90
2018-09-05T05:18:58.029Z,99.90
2018-09-05T05:21:26.545Z,99.90
2018-09-05T05:23:55.119Z,99.90
2018-09-05T05:26:23.591Z,99.90
2018-09-05T05:28:54.998Z,99.90
2018-09-05T05:31:23.463Z,99.90
2018-09-05T05:33:51.996Z,99.90
2018-09-05T05:36:20.544Z,99.90
2018-09-05T05:38:49.061Z,99.90
2018-09-05T05:41:17.543Z,99.90
2018-09-05T05:43:46.426Z,99.90
2018-09-05T05:46:15.005Z,99.90
2018-09-05T05:48:43.519Z,99.90
2018-09-05T05:51:12.002Z,99.90
2018-09-05T05:53:40.854Z,99.90
2018-09-05T05:56:09.338Z,99.90
2018-09-05T05:58:37.871Z,99.90
2018-09-05T06:01:06.431Z,99.90
2018-09-05T06:03:35.159Z,99.90
2018-09-05T06:06:03.819Z,99.90
2018-09-05T06:08:32.602Z,99.90
2018-09-05T06:11:01.180Z,99.90
2018-09-05T06:13:29.680Z,99.90
2018-09-05T06:15:58.200Z,99.90
2018-09-05T06:18:26.688Z,99.90
2018-09-05T06:20:55.251Z,99.90
2018-09-05T06:23:23.739Z,99.90
2018-09-05T06:25:52.263Z,99.90
2018-09-05T06:28:20.730Z,99.90
2018-09-05T06:30:49.264Z,99.90
2018-09-05T06:33:17.746Z,99.90
2018-09-05T06:35:46.619Z,99.90
2018-09-05T06:38:15.102Z,99.90
2018-09-05T06:40:43.896Z,99.90
2018-09-05T06:43:12.409Z,99.90
2018-09-05T06:45:41.219Z,99.90
2018-09-05T06:48:09.695Z,99.90
2018-09-05T06:50:38.194Z,99.90
2018-09-05T06:53:06.997Z,99.90
2018-09-05T06:55:35.511Z,99.90
2018-09-05T06:58:04.079Z,99.90
2018-09-05T07:00:32.649Z,99.90
2018-09-05T07:03:01.247Z,99.90
2018-09-05T07:05:29.832Z,99.90
2018-09-05T07:07:58.575Z,99.90
2018-09-05T07:10:27.327Z,99.90
2018-09-05T07:12:55.795Z,99.90
2018-09-05T07:15:24.342Z,99.90
2018-09-05T07:17:52.869Z,99.90
2018-09-05T07:20:21.379Z,99.90
2018-09-05T07:22:49.890Z,99.90
2018-09-05T07:25:18.468Z,99.90
2018-09-05T07:27:46.952Z,99.90
2018-09-05T07:30:16.971Z,99.90
2018-09-05T07:32:45.761Z,99.90
2018-09-05T07:35:14.601Z,99.90
2018-09-05T07:37:43.091Z,99.90
2018-09-05T07:40:11.778Z,99.90
2018-09-05T07:42:40.243Z,99.90
2018-09-05T07:45:08.833Z,99.90
2018-09-05T07:47:37.394Z,99.90
2018-09-05T07:50:06.306Z,99.90
2018-09-05T07:52:38.153Z,99.90
2018-09-05T07:55:06.967Z,99.90
2018-09-05T07:57:35.464Z,99.90
2018-09-05T08:00:04.060Z,99.90
2018-09-05T08:02:32.608Z,99.90
2018-09-05T08:05:01.136Z,99.90
2018-09-05T08:07:29.670Z,99.90
2018-09-05T08:09:58.160Z,99.90
2018-09-05T08:12:26.645Z,99.90
2018-09-05T08:14:55.119Z,99.90
2018-09-05T08:17:23.707Z,99.90
2018-09-05T08:19:52.198Z,99.90
2018-09-05T08:22:20.691Z,99.90
2018-09-05T08:24:49.282Z,99.90
2018-09-05T08:27:21.462Z,99.90
2018-09-05T08:29:50.347Z,99.90
2018-09-05T08:32:18.867Z,99.90
2018-09-05T08:34:47.655Z,99.90
2018-09-05T08:37:16.367Z,99.90
2018-09-05T08:39:44.695Z,99.90
2018-09-05T08:42:13.402Z,99.90
2018-09-05T08:44:41.982Z,99.90
2018-09-05T08:47:10.424Z,99.90
2018-09-05T08:49:38.912Z,99.90
2018-09-05T08:52:07.399Z,99.90
2018-09-05T08:54:35.936Z,99.90
2018-09-05T08:57:04.475Z,99.90
2018-09-05T08:59:32.958Z,99.90
2018-09-05T09:02:01.512Z,99.90
2018-09-05T09:04:30.029Z,99.90
2018-09-05T09:06:58.547Z,99.90
2018-09-05T09:09:27.024Z,99.90
2018-09-05T09:11:55.810Z,99.90
2018-09-05T09:14:24.292Z,99.90
2018-09-05T09:16:52.883Z,99.90
2018-09-05T09:19:21.426Z,99.90
2018-09-05T09:21:49.948Z,99.90
2018-09-05T09:24:18.523Z,99.90
2018-09-05T09:26:47.036Z,99.90
2018-09-05T09:29:15.536Z,99.90
2018-09-05T09:31:44.080Z,99.90
2018-09-05T09:34:12.546Z,99.90
2018-09-05T09:36:41.031Z,99.90
2018-09-05T09:39:10.674Z,99.90
2018-09-05T09:41:39.263Z,99.90
2018-09-05T09:44:07.755Z,99.90
2018-09-05T09:46:36.913Z,99.90
2018-09-05T09:49:05.659Z,99.90
2018-09-05T09:51:34.180Z,99.90
2018-09-05T09:54:02.668Z,99.90
2018-09-05T09:56:31.220Z,99.90
2018-09-05T09:58:59.684Z,99.90
2018-09-05T10:01:33.567Z,99.90
2018-09-05T10:04:07.490Z,99.90
2018-09-05T10:06:41.482Z,99.90
2018-09-05T10:09:15.244Z,99.90
2018-09-05T10:11:49.157Z,99.90
2018-09-05T10:14:22.943Z,99.90
2018-09-05T10:16:56.945Z,99.90
2018-09-05T10:19:25.460Z,99.50
2018-09-05T10:21:54.970Z,99.50
2018-09-05T10:24:23.731Z,98.80
2018-09-05T10:26:52.902Z,97.20
2018-09-05T10:29:21.396Z,96.60
2018-09-05T10:31:50.557Z,94.50
2018-09-05T10:34:19.021Z,95.70
2018-09-05T10:36:47.559Z,94.90
2018-09-05T10:39:18.640Z,93.80
2018-09-05T10:41:47.151Z,91.90
2018-09-05T10:44:15.709Z,93.70
2018-09-05T10:46:44.606Z,93.50
2018-09-05T10:49:13.132Z,93.40
2018-09-05T10:51:46.942Z,93.40
2018-09-05T10:54:15.517Z,93.00
2018-09-05T10:56:44.282Z,91.80
2018-09-05T10:59:13.082Z,91.50
2018-09-05T11:01:41.650Z,89.80
2018-09-05T11:04:13.065Z,90.80
2018-09-05T11:06:41.815Z,89.20
2018-09-05T11:09:11.531Z,86.30
2018-09-05T11:11:40.415Z,86.90
2018-09-05T11:14:09.995Z,85.10
2018-09-05T11:16:38.676Z,86.70
2018-09-05T11:19:07.592Z,87.00
2018-09-05T11:21:36.114Z,84.10
2018-09-05T11:24:04.647Z,84.40
2018-09-05T11:26:33.270Z,84.10
2018-09-05T11:29:06.959Z,81.20
2018-09-05T11:31:35.462Z,81.30
2018-09-05T11:34:04.019Z,82.40
2018-09-05T11:36:32.511Z,81.70
2018-09-05T11:39:01.001Z,81.60
2018-09-05T11:41:29.496Z,82.00
2018-09-05T11:43:58.047Z,82.20
2018-09-05T11:46:26.528Z,83.90
2018-09-05T11:48:55.023Z,81.70
2018-09-05T11:51:23.759Z,80.30
2018-09-05T11:53:52.262Z,78.60
2018-09-05T11:56:20.721Z,80.60
2018-09-05T11:58:49.247Z,77.30
2018-09-05T12:01:17.731Z,76.40
2018-09-05T12:03:46.248Z,74.10
2018-09-05T12:06:14.720Z,75.90
2018-09-05T12:08:43.202Z,73.20
2018-09-05T12:11:12.052Z,72.50
2018-09-05T12:13:40.571Z,73.70
2018-09-05T12:16:09.028Z,73.90
2018-09-05T12:18:37.554Z,74.00
2018-09-05T12:21:06.031Z,69.50
2018-09-05T12:23:34.640Z,72.20
2018-09-05T12:26:03.172Z,69.50
2018-09-05T12:28:31.700Z,69.20
2018-09-05T12:31:00.186Z,70.30
2018-09-05T12:33:28.687Z,70.20
2018-09-05T12:35:57.176Z,69.50
2018-09-05T12:38:25.719Z,70.70
2018-09-05T12:40:54.215Z,72.10
2018-09-05T12:43:22.920Z,70.90
2018-09-05T12:45:51.419Z,68.90
2018-09-05T12:48:20.254Z,68.40
2018-09-05T12:50:48.705Z,67.80
2018-09-05T12:53:17.227Z,66.90
2018-09-05T12:55:50.816Z,67.50
2018-09-05T12:58:19.934Z,68.00
2018-09-05T13:00:48.450Z,65.20
2018-09-05T13:03:16.967Z,65.10
2018-09-05T13:05:45.463Z,65.40
2018-09-05T13:08:14.000Z,66.00
2018-09-05T13:10:42.479Z,65.30
2018-09-05T13:13:10.953Z,65.40
2018-09-05T13:15:39.501Z,65.10
2018-09-05T13:18:08.343Z,64.90
2018-09-05T13:20:36.842Z,64.10
2018-09-05T13:23:05.378Z,64.10
2018-09-05T13:25:33.888Z,63.30
2018-09-05T13:28:02.355Z,63.50
2018-09-05T13:30:31.147Z,62.00
2018-09-05T13:32:59.662Z,61.50
2018-09-05T13:35:28.259Z,61.50
2018-09-05T13:37:56.748Z,62.70
2018-09-05T13:40:25.327Z,62.30
2018-09-05T13:42:53.819Z,61.80
2018-09-05T13:45:22.377Z,62.90
2018-09-05T13:47:50.911Z,62.30
2018-09-05T13:50:19.425Z,60.50
2018-09-05T13:52:47.956Z,61.60
2018-09-05T13:55:16.489Z,62.00
2018-09-05T13:57:45.586Z,61.00
2018-09-05T14:00:15.563Z,60.80
2018-09-05T14:02:45.809Z,60.30
2018-09-05T14:05:14.790Z,63.70
2018-09-05T14:07:44.055Z,61.50
2018-09-05T14:10:13.284Z,60.60
2018-09-05T14:12:41.847Z,62.00
2018-09-05T14:15:10.345Z,60.40
2018-09-05T14:17:38.835Z,62.00
2018-09-05T14:20:07.444Z,59.10
2018-09-05T14:22:35.955Z,59.80
2018-09-05T14:25:04.590Z,59.50
2018-09-05T14:27:33.475Z,58.80
2018-09-05T14:30:02.257Z,59.50
2018-09-05T14:32:30.758Z,59.30
2018-09-05T14:35:05.860Z,59.20
2018-09-05T14:37:34.319Z,60.10
2018-09-05T14:40:02.888Z,59.00
2018-09-05T14:42:31.327Z,58.00
2018-09-05T14:44:59.827Z,58.40
2018-09-05T14:47:28.319Z,58.10
2018-09-05T14:49:56.809Z,58.60
2018-09-05T14:52:25.310Z,58.90
2018-09-05T14:54:53.973Z,58.40
2018-09-05T14:57:22.460Z,58.40
2018-09-05T14:59:50.977Z,58.60
2018-09-05T15:02:19.835Z,57.90
2018-09-05T15:04:48.691Z,57.90
2018-09-05T15:07:17.266Z,58.70
2018-09-05T15:09:45.780Z,59.50
2018-09-05T15:12:14.259Z,59.90
2018-09-05T15:14:43.054Z,59.80
2018-09-05T15:17:11.838Z,60.50
2018-09-05T15:19:40.439Z,59.50
2018-09-05T15:22:08.991Z,59.30
2018-09-05T15:24:37.544Z,59.90
2018-09-05T15:27:06.903Z,60.00
2018-09-05T15:29:35.384Z,59.60
2018-09-05T15:32:03.881Z,59.90
2018-09-05T15:34:32.374Z,59.80
2018-09-05T15:37:01.091Z,60.20
2018-09-05T15:39:29.590Z,59.90
2018-09-05T15:41:58.097Z,61.30
2018-09-05T15:44:26.607Z,60.40
2018-09-05T15:46:55.160Z,59.50
2018-09-05T15:49:23.899Z,58.70
2018-09-05T15:51:54.898Z,59.40
2018-09-05T15:54:24.308Z,61.40
2018-09-05T15:56:53.321Z,61.60
2018-09-05T15:59:22.489Z,59.50
2018-09-05T16:01:51.062Z,59.90
2018-09-05T16:04:19.563Z,61.10
2018-09-05T16:06:48.051Z,62.10
2018-09-05T16:09:16.882Z,62.20
2018-09-05T16:11:45.641Z,62.40
2018-09-05T16:14:14.102Z,63.20
2018-09-05T16:16:42.590Z,62.10
2018-09-05T16:19:11.068Z,63.10
2018-09-05T16:21:39.995Z,62.80
2018-09-05T16:24:08.501Z,61.80
2018-09-05T16:26:37.038Z,62.30
2018-09-05T16:29:05.532Z,61.90
2018-09-05T16:31:34.046Z,62.00
2018-09-05T16:34:02.566Z,62.80
2018-09-05T16:36:31.376Z,63.00
2018-09-05T16:39:00.202Z,64.00
2018-09-05T16:41:28.977Z,63.90
2018-09-05T16:44:00.569Z,64.10
2018-09-05T16:46:29.090Z,63.30
2018-09-05T16:48:57.587Z,64.30
2018-09-05T16:51:26.076Z,64.50
2018-09-05T16:53:54.597Z,63.70
2018-09-05T16:56:23.470Z,64.80
2018-09-05T16:58:51.995Z,65.30
2018-09-05T17:01:20.527Z,64.60
2018-09-05T17:03:48.982Z,64.70
2018-09-05T17:06:17.495Z,65.70
2018-09-05T17:08:45.994Z,65.70
2018-09-05T17:11:14.612Z,65.30
2018-09-05T17:13:43.286Z,65.50
2018-09-05T17:16:11.794Z,65.60
2018-09-05T17:18:40.267Z,65.50
2018-09-05T17:21:08.778Z,66.00
2018-09-05T17:23:37.267Z,65.50
2018-09-05T17:26:05.772Z,66.10
2018-09-05T17:28:34.342Z,65.80
2018-09-05T17:31:03.280Z,66.30
2018-09-05T17:33:31.767Z,66.10
2018-09-05T17:36:00.393Z,67.00
2018-09-05T17:38:28.939Z,67.10
2018-09-05T17:40:57.533Z,67.80
2018-09-05T17:43:26.239Z,67.90
2018-09-05T17:45:54.807Z,69.20
2018-09-05T17:48:23.574Z,69.30
2018-09-05T17:50:52.094Z,69.60
2018-09-05T17:53:20.615Z,70.20
2018-09-05T17:55:49.724Z,70.90
2018-09-05T17:58:18.293Z,71.50
2018-09-05T18:00:47.301Z,71.80
2018-09-05T18:03:16.383Z,72.40
2018-09-05T18:05:44.958Z,73.30
2018-09-05T18:08:13.650Z,73.50
2018-09-05T18:10:42.231Z,74.70
2018-09-05T18:13:10.836Z,75.10
2018-09-05T18:15:39.597Z,75.60
2018-09-05T18:18:08.113Z,75.40
2018-09-05T18:20:36.664Z,76.00
2018-09-05T18:23:05.310Z,76.80
2018-09-05T18:25:34.336Z,76.90
2018-09-05T18:28:03.000Z,77.20
2018-09-05T18:30:31.514Z,78.00
2018-09-05T18:33:00.047Z,77.70
2018-09-05T18:35:28.547Z,78.10
2018-09-05T18:37:57.074Z,78.90
2018-09-05T18:40:25.559Z,79.10
2018-09-05T18:42:54.377Z,79.10
2018-09-05T18:45:22.879Z,79.60
2018-09-05T18:47:51.447Z,79.90
2018-09-05T18:50:19.936Z,80.30
2018-09-05T18:52:48.488Z,80.70
2018-09-05T18:55:16.981Z,81.00
2018-09-05T18:57:45.537Z,82.10
2018-09-05T19:00:14.042Z,82.50
2018-09-05T19:02:42.545Z,82.30
2018-09-05T19:05:11.006Z,82.60
2018-09-05T19:07:39.514Z,82.70
2018-09-05T19:10:08.001Z,83.00
2018-09-05T19:12:36.526Z,83.60
2018-09-05T19:15:05.363Z,83.30
2018-09-05T19:17:34.117Z,83.50
2018-09-05T19:20:02.959Z,84.20
2018-09-05T19:22:31.953Z,84.40
2018-09-05T19:25:00.387Z,85.00
2018-09-05T19:27:28.891Z,85.70
2018-09-05T19:29:57.347Z,86.60
2018-09-05T19:32:25.937Z,87.00
2018-09-05T19:34:54.427Z,87.00
2018-09-05T19:37:22.956Z,87.60
2018-09-05T19:39:51.440Z,87.20
2018-09-05T19:42:20.038Z,87.10
2018-09-05T19:44:48.469Z,86.60
2018-09-05T19:47:18.096Z,87.50
2018-09-05T19:49:47.117Z,88.30
2018-09-05T19:52:15.650Z,88.20
2018-09-05T19:54:44.143Z,88.50
2018-09-05T19:57:12.674Z,88.30
2018-09-05T19:59:42.140Z,88.30
2018-09-05T20:02:12.635Z,88.50
2018-09-05T20:04:42.519Z,89.30
2018-09-05T20:07:11.618Z,89.40
2018-09-05T20:09:41.831Z,90.40
2018-09-05T20:12:12.409Z,90.20
2018-09-05T20:14:42.217Z,90.30
2018-09-05T20:17:12.529Z,90.50
2018-09-05T20:19:43.147Z,91.10
2018-09-05T20:22:13.082Z,90.70
2018-09-05T20:24:43.549Z,90.70
2018-09-05T20:27:14.475Z,91.00
2018-09-05T20:29:45.286Z,90.80
2018-09-05T20:32:16.377Z,91.10
2018-09-05T20:34:44.917Z,91.40
2018-09-05T20:37:13.431Z,91.60
2018-09-05T20:39:41.920Z,92.00
2018-09-05T20:42:10.430Z,92.40
2018-09-05T20:44:38.893Z,92.40
2018-09-05T20:47:07.419Z,92.70
2018-09-05T20:49:35.891Z,92.90
2018-09-05T20:52:04.429Z,93.00
2018-09-05T20:54:32.952Z,93.10
2018-09-05T20:57:01.491Z,93.30
2018-09-05T20:59:30.003Z,93.60
2018-09-05T21:01:58.888Z,93.40
2018-09-05T21:04:27.426Z,93.80
2018-09-05T21:06:56.167Z,94.40
2018-09-05T21:09:24.956Z,94.80
2018-09-05T21:11:53.426Z,95.30
2018-09-05T21:14:22.157Z,95.70
2018-09-05T21:16:50.681Z,95.80
2018-09-05T21:19:19.174Z,95.60
2018-09-05T21:21:47.641Z,96.00
2018-09-05T21:24:16.434Z,95.90
2018-09-05T21:26:44.967Z,96.40
2018-09-05T21:29:13.454Z,96.80
2018-09-05T21:31:41.925Z,96.90
2018-09-05T21:34:10.482Z,97.20
2018-09-05T21:36:38.966Z,97.60
2018-09-05T21:39:08.733Z,98.60
2018-09-05T21:41:37.265Z,99.00
2018-09-05T21:44:05.807Z,99.60
2018-09-05T21:46:34.478Z,99.90
2018-09-05T21:49:02.981Z,99.90
2018-09-05T21:51:31.446Z,99.90
2018-09-05T21:53:59.975Z,99.90
2018-09-05T21:56:28.467Z,99.50
2018-09-05T21:58:57.020Z,99.30
2018-09-05T22:01:25.523Z,99.70
2018-09-05T22:03:54.038Z,99.90
2018-09-05T22:06:22.493Z,99.90
2018-09-05T22:08:51.355Z,99.90
2018-09-05T22:11:24.863Z,99.90
2018-09-05T22:13:53.636Z,99.90
2018-09-05T22:16:24.902Z,99.90
2018-09-05T22:18:53.991Z,99.90
2018-09-05T22:21:22.479Z,99.90
2018-09-05T22:23:50.983Z,99.90
2018-09-05T22:26:19.807Z,99.90
2018-09-05T22:28:48.328Z,99.90
2018-09-05T22:31:16.840Z,99.90
2018-09-05T22:33:45.660Z,99.90
2018-09-05T22:36:14.472Z,99.90
2018-09-05T22:38:43.356Z,99.90
2018-09-05T22:41:12.274Z,99.90
2018-09-05T22:43:52.219Z,99.90
2018-09-05T22:46:31.927Z,99.90
2018-09-05T22:51:23.732Z,99.90
2018-09-05T22:54:15.134Z,99.90
2018-09-05T22:58:03.728Z,99.90
2018-09-05T23:02:47.096Z,99.90
2018-09-05T23:05:57.972Z,99.90
2018-09-05T23:08:46.923Z,99.90
2018-09-05T23:11:59.022Z,99.90
2018-09-05T23:14:39.981Z,99.90
2018-09-05T23:17:20.013Z,99.90
2018-09-05T23:20:09.667Z,99.90
2018-09-05T23:22:49.821Z,99.90
2018-09-05T23:25:18.359Z,99.90
2018-09-05T23:27:46.931Z,99.90
2018-09-05T23:30:15.432Z,99.90
2018-09-05T23:32:44.499Z,99.90
2018-09-05T23:35:13.019Z,99.90
2018-09-05T23:37:41.496Z,99.90
2018-09-05T23:40:13.374Z,99.90
2018-09-05T23:42:42.555Z,99.90
2018-09-05T23:45:11.112Z,99.90
2018-09-05T23:47:39.648Z,99.90
2018-09-05T23:50:08.426Z,99.90
2018-09-05T23:52:37.138Z,99.90
2018-09-05T23:55:06.613Z,99.90
2018-09-05T23:57:35.154Z,99.90
